Kaisei Maru — JD3114 — position and weather

sailwx.info

Track history (hours):
 
Tides and Currents Weather Stations Pressure Air Temp Water Temp Dewpoint Dewpoint Depression Visibility Wind Speed Wind Dir Waves Ship Positions

Kaisei Maru

Last reported at 2017-Aug-21 03:11 UTC. Time now 2017-Aug-21 06:30 UTC.
Position N 34°37' E 135°01'.

Length 52 m; draft 3.8 m.

Type: Tanker. MMSI: 431001837.

Date/timePositionNaut miles runAvg speedWind from/ knotsBaromVisibWave heightAir tempDewpointWater temp
2017-Aug-21 03:11N 34°37' E 135°01'1 6.8
2017-Aug-21 02:59N 34°37' E 135°03'4 8.1
2017-Aug-21 02:30N 34°37' E 135°07'510.3
2017-Aug-21 02:00N 34°37' E 135°13'510.5
2017-Aug-21 01:30N 34°38' E 135°20'5 9.7
2017-Aug-21 01:00N 34°39' E 135°25'1 2.1
2017-Aug-21 00:30N 34°40' E 135°27'0 0.0
2017-Aug-21 00:00N 34°40' E 135°27'0 0.0
2017-Aug-20 23:30N 34°40' E 135°27'2 3.8
2017-Aug-20 23:00N 34°39' E 135°24'2 3.4
2017-Aug-20 22:30N 34°40' E 135°22'0 0.0
2017-Aug-20 22:00N 34°40' E 135°22'0 0.0
2017-Aug-20 21:30N 34°40' E 135°22'0 0.0
2017-Aug-20 21:00N 34°40' E 135°22'0 0.0
2017-Aug-20 20:30N 34°40' E 135°22'0 0.0
2017-Aug-20 20:00N 34°40' E 135°22'0 0.0
2017-Aug-20 19:30N 34°40' E 135°22'0 0.0
2017-Aug-20 19:00N 34°40' E 135°22'0 0.0
2017-Aug-20 18:30N 34°40' E 135°22'0 0.0
2017-Aug-20 18:00N 34°40' E 135°22'0 0.0
2017-Aug-20 17:30N 34°40' E 135°22'0 0.0
2017-Aug-20 17:00N 34°40' E 135°22'0 0.1
2017-Aug-20 16:30N 34°40' E 135°22'0 0.1
2017-Aug-20 15:59N 34°40' E 135°22'0 0.0
2017-Aug-20 15:30N 34°40' E 135°22'0 0.0
2017-Aug-20 15:00N 34°40' E 135°22'0 0.4
2017-Aug-20 14:29N 34°40' E 135°22'5 9.4
2017-Aug-20 14:00N 34°37' E 135°19'511.0
2017-Aug-20 13:30N 34°32' E 135°15'611.5
2017-Aug-20 13:00N 34°27' E 135°11'611.1
2017-Aug-20 12:27N 34°22' E 135°07'811.0
2017-Aug-20 11:41N 34°15' E 135°02'212.2
2017-Aug-20 11:30N 34°12' E 135°02'222 8.3
2017-Aug-19 08:45N 34°59' E 139°26'310.9
2017-Aug-19 08:29N 35°01' E 139°29'510.8
2017-Aug-19 08:00N 35°04' E 139°34'510.2
2017-Aug-19 07:30N 35°07' E 139°39'5 9.4
2017-Aug-19 07:00N 35°10' E 139°44'5 9.6
2017-Aug-19 06:30N 35°14' E 139°46'510.0
2017-Aug-19 06:00N 35°19' E 139°43'5 9.6
2017-Aug-19 05:30N 35°23' E 139°42'5 9.9
2017-Aug-19 05:00N 35°27' E 139°47'510.2
2017-Aug-19 04:30N 35°30' E 139°52'510.4
2017-Aug-19 04:00N 35°34' E 139°56'510.0
2017-Aug-19 03:28N 35°39' E 139°59'2 4.8
2017-Aug-19 03:00N 35°41' E 139°59'0 0.0
2017-Aug-19 02:29N 35°41' E 139°59'0 0.0
2017-Aug-19 01:10N 35°41' E 139°59'0 0.0
2017-Aug-19 00:58N 35°41' E 139°59'0 0.0
2017-Aug-19 00:29N 35°41' E 139°59'0 0.0
2017-Aug-18 01:42N 35°41' E 139°59'0 0.0
2017-Aug-17 17:52N 35°41' E 139°59'0 0.0
2017-Aug-17 17:13N 35°41' E 139°59'0 0.0
2017-Aug-17 17:00N 35°41' E 139°59'0 0.0
2017-Aug-17 16:16N 35°41' E 139°59'0 0.0
2017-Aug-17 15:57N 35°41' E 139°59'0 0.0
2017-Aug-17 15:28N 35°41' E 139°59'0 0.0
2017-Aug-16 22:58N 35°41' E 139°59'4 8.5
2017-Aug-16 22:30N 35°37' E 139°59'3 6.4
2017-Aug-16 22:00N 35°34' E 139°58'510.0
2017-Aug-16 21:30N 35°31' E 139°53'4 8.5
2017-Aug-16 21:00N 35°30' E 139°48'2 3.3
2017-Aug-16 20:30N 35°30' E 139°46'0 0.0
2017-Aug-16 20:00N 35°30' E 139°46'0 0.0
2017-Aug-16 19:30N 35°30' E 139°46'0 0.0
2017-Aug-16 19:00N 35°30' E 139°46'0 0.0
2017-Aug-16 18:30N 35°30' E 139°46'0 0.0
2017-Aug-16 18:00N 35°30' E 139°46'0 0.0
2017-Aug-16 17:30N 35°30' E 139°46'0 0.0
2017-Aug-16 17:00N 35°30' E 139°46'0 0.0
2017-Aug-16 16:30N 35°30' E 139°46'0 0.0
2017-Aug-16 16:00N 35°30' E 139°46'0 0.0
2017-Aug-16 15:30N 35°30' E 139°46'0 0.0
2017-Aug-16 15:00N 35°30' E 139°46'0 0.0
2017-Aug-16 14:30N 35°30' E 139°46'0 0.0
2017-Aug-16 14:00N 35°30' E 139°46'0 0.0
2017-Aug-16 13:30N 35°30' E 139°46'0 0.0
2017-Aug-16 13:00N 35°30' E 139°46'0 0.0
2017-Aug-16 12:30N 35°30' E 139°46'0 0.0
2017-Aug-16 12:00N 35°30' E 139°46'0 0.0
2017-Aug-16 11:30N 35°30' E 139°46'0 0.0
2017-Aug-16 11:00N 35°30' E 139°46'0 0.0
2017-Aug-16 10:30N 35°30' E 139°46'0 0.0
2017-Aug-16 10:00N 35°30' E 139°46'0 0.0
2017-Aug-16 09:30N 35°30' E 139°46'0 0.0
2017-Aug-16 09:00N 35°30' E 139°46'0 0.0
2017-Aug-16 08:30N 35°30' E 139°46'0 0.0
2017-Aug-16 08:00N 35°30' E 139°46'0 0.0
2017-Aug-16 07:30N 35°30' E 139°46'0 0.0
2017-Aug-16 07:00N 35°30' E 139°46'0 0.0
2017-Aug-16 06:30N 35°30' E 139°46'0 0.0
2017-Aug-16 06:00N 35°30' E 139°46'0 0.0
2017-Aug-16 05:30N 35°30' E 139°46'0 0.0
2017-Aug-16 05:00N 35°30' E 139°46'0 0.0
2017-Aug-16 04:30N 35°30' E 139°46'0 0.0
2017-Aug-16 04:00N 35°30' E 139°46'0 0.0
2017-Aug-16 03:30N 35°30' E 139°46'0 0.0
2017-Aug-16 03:00N 35°30' E 139°46'0 0.0
2017-Aug-16 02:30N 35°30' E 139°46'0 0.0
2017-Aug-16 02:00N 35°30' E 139°46'0 0.0
2017-Aug-16 01:30N 35°30' E 139°46'0 0.0
2017-Aug-16 01:00N 35°30' E 139°46'0 0.0
2017-Aug-16 00:30N 35°30' E 139°46'0 0.0
2017-Aug-16 00:00N 35°30' E 139°46'0 0.0
2017-Aug-15 23:30N 35°30' E 139°46'0 0.0
2017-Aug-15 23:00N 35°30' E 139°46'0 0.0
2017-Aug-15 22:30N 35°30' E 139°46'0 0.0
2017-Aug-15 22:00N 35°30' E 139°46'0 0.0
2017-Aug-15 21:30N 35°30' E 139°46'0 0.0
2017-Aug-15 21:00N 35°30' E 139°46'0 0.0
2017-Aug-15 20:30N 35°30' E 139°46'0 0.0
2017-Aug-15 20:00N 35°30' E 139°46'0 0.0
2017-Aug-15 19:30N 35°30' E 139°46'0 0.0
2017-Aug-15 19:00N 35°30' E 139°46'0 0.0
2017-Aug-15 18:30N 35°30' E 139°46'0 0.0
2017-Aug-15 18:00N 35°30' E 139°46'0 0.0
2017-Aug-15 17:30N 35°30' E 139°46'0 0.0
2017-Aug-15 17:00N 35°30' E 139°46'0 0.0
2017-Aug-15 16:30N 35°30' E 139°46'0 0.0
2017-Aug-15 16:00N 35°30' E 139°46'0 0.0
2017-Aug-15 15:30N 35°30' E 139°46'0 0.0
2017-Aug-15 15:00N 35°30' E 139°46'0 0.0
2017-Aug-15 14:30N 35°30' E 139°46'0 0.0
2017-Aug-15 14:00N 35°30' E 139°46'0 0.0
2017-Aug-15 13:30N 35°30' E 139°46'0 0.0
2017-Aug-15 13:00N 35°30' E 139°46'0 0.0
2017-Aug-15 12:30N 35°30' E 139°46'0 0.0
2017-Aug-15 12:00N 35°30' E 139°46'0 0.0
2017-Aug-15 11:30N 35°30' E 139°46'0 0.0
2017-Aug-15 11:00N 35°30' E 139°46'0 0.0
2017-Aug-15 10:30N 35°30' E 139°46'0 0.0
2017-Aug-15 10:00N 35°30' E 139°46'0 0.0
2017-Aug-15 09:30N 35°30' E 139°46'0 0.0
2017-Aug-15 09:00N 35°30' E 139°46'0 0.0
2017-Aug-15 08:30N 35°30' E 139°46'0 0.0
2017-Aug-15 08:00N 35°30' E 139°46'0 0.0
2017-Aug-15 07:30N 35°30' E 139°46'0 0.0
2017-Aug-15 07:00N 35°30' E 139°46'0 0.0
2017-Aug-15 06:30N 35°30' E 139°46'0 0.5
2017-Aug-15 06:00N 35°31' E 139°46'3 6.3
2017-Aug-15 05:30N 35°27' E 139°45'0 0.6
2017-Aug-15 05:00N 35°27' E 139°45'0 0.0
2017-Aug-15 04:30N 35°27' E 139°45'0 0.0
2017-Aug-15 04:00N 35°27' E 139°45'0 0.0
2017-Aug-15 03:30N 35°27' E 139°45'0 0.0
2017-Aug-15 03:00N 35°27' E 139°45'0 0.0
2017-Aug-15 02:30N 35°27' E 139°45'0 0.1
2017-Aug-15 02:00N 35°27' E 139°45'4 7.4
2017-Aug-15 01:30N 35°27' E 139°40'2 3.4
2017-Aug-15 01:00N 35°29' E 139°40'0 0.0
2017-Aug-15 00:30N 35°29' E 139°40'0 0.0
2017-Aug-15 00:00N 35°29' E 139°40'0 0.0
2017-Aug-14 23:30N 35°29' E 139°40'0 0.0
2017-Aug-14 23:00N 35°29' E 139°40'0 0.0
2017-Aug-14 22:30N 35°29' E 139°40'0 0.0
2017-Aug-14 22:00N 35°29' E 139°40'1 1.9
2017-Aug-14 21:30N 35°28' E 139°40'3 5.1
2017-Aug-14 21:00N 35°27' E 139°43'0 0.1
2017-Aug-14 20:30N 35°27' E 139°43'0 0.0
2017-Aug-14 20:00N 35°27' E 139°43'0 0.0
2017-Aug-14 19:30N 35°27' E 139°43'0 0.0
2017-Aug-14 19:00N 35°27' E 139°43'1 2.4
2017-Aug-14 18:30N 35°27' E 139°44'1 1.5
2017-Aug-14 18:00N 35°27' E 139°45'0 0.0
2017-Aug-14 17:30N 35°27' E 139°45'0 0.0
2017-Aug-14 17:00N 35°27' E 139°45'0 0.0
2017-Aug-14 16:30N 35°27' E 139°45'0 0.0
2017-Aug-14 16:00N 35°27' E 139°45'0 0.0
2017-Aug-14 15:30N 35°27' E 139°45'0 0.0
2017-Aug-14 15:00N 35°27' E 139°45'0 0.0
2017-Aug-14 14:30N 35°27' E 139°45'1 2.8
2017-Aug-14 14:00N 35°28' E 139°47'1 2.9
2017-Aug-14 13:30N 35°29' E 139°48'0 0.0
2017-Aug-14 13:00N 35°29' E 139°48'0 0.0
2017-Aug-14 12:30N 35°29' E 139°48'0 0.0
2017-Aug-14 12:00N 35°29' E 139°48'0 0.0
2017-Aug-14 11:30N 35°29' E 139°48'0 0.1
2017-Aug-14 11:00N 35°29' E 139°48'0 0.0
2017-Aug-14 10:30N 35°29' E 139°48'0 0.0
2017-Aug-14 10:00N 35°29' E 139°48'0 0.0
2017-Aug-14 09:30N 35°29' E 139°48'0 0.1
2017-Aug-14 09:00N 35°29' E 139°48'0 0.0
2017-Aug-14 08:30N 35°29' E 139°48'0 0.0
2017-Aug-14 08:00N 35°29' E 139°48'0 0.0
2017-Aug-14 07:30N 35°29' E 139°48'0 0.0
2017-Aug-14 07:00N 35°29' E 139°48'0 0.0
2017-Aug-14 06:30N 35°29' E 139°48'0 0.0
2017-Aug-14 06:00N 35°29' E 139°48'0 0.0
2017-Aug-14 05:30N 35°29' E 139°48'0 0.0
2017-Aug-14 05:00N 35°29' E 139°48'0 0.0
2017-Aug-14 04:30N 35°29' E 139°48'2 3.2
2017-Aug-14 04:00N 35°28' E 139°46'4 8.8
2017-Aug-14 03:30N 35°27' E 139°41'2 4.2
2017-Aug-14 03:00N 35°29' E 139°40'0 0.0
2017-Aug-14 02:30N 35°29' E 139°40'0 0.0
2017-Aug-14 02:00N 35°29' E 139°40'0 0.0
2017-Aug-14 01:30N 35°29' E 139°40'0 0.0
2017-Aug-14 01:00N 35°29' E 139°40'0 0.0
2017-Aug-14 00:30N 35°29' E 139°40'0 0.0
2017-Aug-14 00:00N 35°29' E 139°40'0 0.0
2017-Aug-13 23:30N 35°29' E 139°40'0 0.0
2017-Aug-13 23:00N 35°29' E 139°40'0 0.0
2017-Aug-13 22:30N 35°29' E 139°40'2 3.3
2017-Aug-13 22:00N 35°27' E 139°40'2 3.2
2017-Aug-13 21:30N 35°27' E 139°42'0 0.0
2017-Aug-13 21:00N 35°27' E 139°42'0 0.0
2017-Aug-13 20:30N 35°27' E 139°42'0 0.0
2017-Aug-13 20:00N 35°27' E 139°42'0 0.0
2017-Aug-13 19:30N 35°27' E 139°42'0 0.0
2017-Aug-13 19:00N 35°27' E 139°42'0 0.0
2017-Aug-13 18:30N 35°27' E 139°42'0 0.0
2017-Aug-13 18:00N 35°27' E 139°42'0 0.0
2017-Aug-13 17:30N 35°27' E 139°42'0 0.0
2017-Aug-13 17:00N 35°27' E 139°42'0 0.0
2017-Aug-13 16:30N 35°27' E 139°42'0 0.0
2017-Aug-13 16:00N 35°27' E 139°42'0 0.0
2017-Aug-13 15:30N 35°27' E 139°42'0 0.0
2017-Aug-13 15:00N 35°27' E 139°42'0 0.0
2017-Aug-13 14:30N 35°27' E 139°42'0 0.0
2017-Aug-13 14:00N 35°27' E 139°42'0 0.0
2017-Aug-13 13:30N 35°27' E 139°42'0 0.0
2017-Aug-13 13:00N 35°27' E 139°42'0 0.0
2017-Aug-13 12:30N 35°27' E 139°42'0 0.0
2017-Aug-13 12:00N 35°27' E 139°42'0 0.0
2017-Aug-13 11:30N 35°27' E 139°42'0 0.0
2017-Aug-13 11:00N 35°27' E 139°42'0 0.0
2017-Aug-13 10:30N 35°27' E 139°42'0 0.0
2017-Aug-13 10:00N 35°27' E 139°42'0 0.0
2017-Aug-13 09:30N 35°27' E 139°42'0 0.0
2017-Aug-13 09:00N 35°27' E 139°42'0 0.0
2017-Aug-13 08:30N 35°27' E 139°42'0 0.0
2017-Aug-13 08:00N 35°27' E 139°42'0 0.0
2017-Aug-13 07:30N 35°27' E 139°42'0 0.0
2017-Aug-13 07:00N 35°27' E 139°42'0 0.0
2017-Aug-13 06:30N 35°27' E 139°42'0 0.0
2017-Aug-13 06:00N 35°27' E 139°42'0 0.0
2017-Aug-13 05:30N 35°27' E 139°42'0 0.0
2017-Aug-13 05:00N 35°27' E 139°42'0 0.0
2017-Aug-13 04:30N 35°27' E 139°42'0 0.0
2017-Aug-13 04:00N 35°27' E 139°42'0 0.0
2017-Aug-13 03:30N 35°27' E 139°42'0 0.0
2017-Aug-13 03:00N 35°27' E 139°42'0 0.0
2017-Aug-13 02:30N 35°27' E 139°42'0 0.0
2017-Aug-13 02:00N 35°27' E 139°42'0 0.0
2017-Aug-13 01:30N 35°27' E 139°42'0 0.0
2017-Aug-13 01:00N 35°27' E 139°42'0 0.0
2017-Aug-13 00:30N 35°27' E 139°42'0 0.0
2017-Aug-13 00:00N 35°27' E 139°42'0 0.0
2017-Aug-12 23:30N 35°27' E 139°42'0 0.0
2017-Aug-12 23:00N 35°27' E 139°42'0 0.0
2017-Aug-12 22:30N 35°27' E 139°42'0 0.0
2017-Aug-12 22:00N 35°27' E 139°42'0 0.1
2017-Aug-12 21:30N 35°27' E 139°42'0 0.0
2017-Aug-12 21:00N 35°27' E 139°42'0 0.0
2017-Aug-12 20:30N 35°27' E 139°42'0 0.0
2017-Aug-12 20:00N 35°27' E 139°42'0 0.0
2017-Aug-12 19:30N 35°27' E 139°42'0 0.0
2017-Aug-12 19:00N 35°27' E 139°42'0 0.0
2017-Aug-12 18:30N 35°27' E 139°42'0 0.0
2017-Aug-12 18:00N 35°27' E 139°42'4 7.5
2017-Aug-12 17:30N 35°23' E 139°43'510.6
2017-Aug-12 17:00N 35°18' E 139°44'5 9.7
2017-Aug-12 16:30N 35°14' E 139°47'5 9.7
2017-Aug-12 16:00N 35°09' E 139°46'510.7
2017-Aug-12 15:30N 35°04' E 139°44'610.1
2017-Aug-12 14:54N 34°58' E 139°44'  
Track history (hours):
 
Tides and Currents Weather Stations Pressure Air Temp Water Temp Dewpoint Dewpoint Depression Visibility Wind Speed Wind Dir Waves Ship Positions

Kaisei Maru

Last reported at 2017-Aug-21 03:11 UTC. Time now 2017-Aug-21 06:30 UTC.
Position N 34°37' E 135°01'.

Length 52 m; draft 3.8 m.

Type: Tanker. MMSI: 431001837.

Date/timePositionNaut miles runAvg speedWind from/ knotsBaromVisibWave heightAir tempDewpointWater temp
2017-Aug-21 03:11N 34°37' E 135°01'1 6.8
2017-Aug-21 02:59N 34°37' E 135°03'4 8.1
2017-Aug-21 02:30N 34°37' E 135°07'510.3
2017-Aug-21 02:00N 34°37' E 135°13'510.5
2017-Aug-21 01:30N 34°38' E 135°20'5 9.7
2017-Aug-21 01:00N 34°39' E 135°25'1 2.1
2017-Aug-21 00:30N 34°40' E 135°27'0 0.0
2017-Aug-21 00:00N 34°40' E 135°27'0 0.0
2017-Aug-20 23:30N 34°40' E 135°27'2 3.8
2017-Aug-20 23:00N 34°39' E 135°24'2 3.4
2017-Aug-20 22:30N 34°40' E 135°22'0 0.0
2017-Aug-20 22:00N 34°40' E 135°22'0 0.0
2017-Aug-20 21:30N 34°40' E 135°22'0 0.0
2017-Aug-20 21:00N 34°40' E 135°22'0 0.0
2017-Aug-20 20:30N 34°40' E 135°22'0 0.0
2017-Aug-20 20:00N 34°40' E 135°22'0 0.0
2017-Aug-20 19:30N 34°40' E 135°22'0 0.0
2017-Aug-20 19:00N 34°40' E 135°22'0 0.0
2017-Aug-20 18:30N 34°40' E 135°22'0 0.0
2017-Aug-20 18:00N 34°40' E 135°22'0 0.0
2017-Aug-20 17:30N 34°40' E 135°22'0 0.0
2017-Aug-20 17:00N 34°40' E 135°22'0 0.1
2017-Aug-20 16:30N 34°40' E 135°22'0 0.1
2017-Aug-20 15:59N 34°40' E 135°22'0 0.0
2017-Aug-20 15:30N 34°40' E 135°22'0 0.0
2017-Aug-20 15:00N 34°40' E 135°22'0 0.4
2017-Aug-20 14:29N 34°40' E 135°22'5 9.4
2017-Aug-20 14:00N 34°37' E 135°19'511.0
2017-Aug-20 13:30N 34°32' E 135°15'611.5
2017-Aug-20 13:00N 34°27' E 135°11'611.1
2017-Aug-20 12:27N 34°22' E 135°07'811.0
2017-Aug-20 11:41N 34°15' E 135°02'212.2
2017-Aug-20 11:30N 34°12' E 135°02'222 8.3
2017-Aug-19 08:45N 34°59' E 139°26'310.9
2017-Aug-19 08:29N 35°01' E 139°29'510.8
2017-Aug-19 08:00N 35°04' E 139°34'510.2
2017-Aug-19 07:30N 35°07' E 139°39'5 9.4
2017-Aug-19 07:00N 35°10' E 139°44'5 9.6
2017-Aug-19 06:30N 35°14' E 139°46'510.0
2017-Aug-19 06:00N 35°19' E 139°43'5 9.6
2017-Aug-19 05:30N 35°23' E 139°42'5 9.9
2017-Aug-19 05:00N 35°27' E 139°47'510.2
2017-Aug-19 04:30N 35°30' E 139°52'510.4
2017-Aug-19 04:00N 35°34' E 139°56'510.0
2017-Aug-19 03:28N 35°39' E 139°59'2 4.8
2017-Aug-19 03:00N 35°41' E 139°59'0 0.0
2017-Aug-19 02:29N 35°41' E 139°59'0 0.0
2017-Aug-19 01:10N 35°41' E 139°59'0 0.0
2017-Aug-19 00:58N 35°41' E 139°59'0 0.0
2017-Aug-19 00:29N 35°41' E 139°59'0 0.0
2017-Aug-18 01:42N 35°41' E 139°59'0 0.0
2017-Aug-17 17:52N 35°41' E 139°59'0 0.0
2017-Aug-17 17:13N 35°41' E 139°59'0 0.0
2017-Aug-17 17:00N 35°41' E 139°59'0 0.0
2017-Aug-17 16:16N 35°41' E 139°59'0 0.0
2017-Aug-17 15:57N 35°41' E 139°59'0 0.0
2017-Aug-17 15:28N 35°41' E 139°59'0 0.0
2017-Aug-16 22:58N 35°41' E 139°59'4 8.5
2017-Aug-16 22:30N 35°37' E 139°59'3 6.4
2017-Aug-16 22:00N 35°34' E 139°58'510.0
2017-Aug-16 21:30N 35°31' E 139°53'4 8.5
2017-Aug-16 21:00N 35°30' E 139°48'2 3.3
2017-Aug-16 20:30N 35°30' E 139°46'0 0.0
2017-Aug-16 20:00N 35°30' E 139°46'0 0.0
2017-Aug-16 19:30N 35°30' E 139°46'0 0.0
2017-Aug-16 19:00N 35°30' E 139°46'0 0.0
2017-Aug-16 18:30N 35°30' E 139°46'0 0.0
2017-Aug-16 18:00N 35°30' E 139°46'0 0.0
2017-Aug-16 17:30N 35°30' E 139°46'0 0.0
2017-Aug-16 17:00N 35°30' E 139°46'0 0.0
2017-Aug-16 16:30N 35°30' E 139°46'0 0.0
2017-Aug-16 16:00N 35°30' E 139°46'0 0.0
2017-Aug-16 15:30N 35°30' E 139°46'0 0.0
2017-Aug-16 15:00N 35°30' E 139°46'0 0.0
2017-Aug-16 14:30N 35°30' E 139°46'0 0.0
2017-Aug-16 14:00N 35°30' E 139°46'0 0.0
2017-Aug-16 13:30N 35°30' E 139°46'0 0.0
2017-Aug-16 13:00N 35°30' E 139°46'0 0.0
2017-Aug-16 12:30N 35°30' E 139°46'0 0.0
2017-Aug-16 12:00N 35°30' E 139°46'0 0.0
2017-Aug-16 11:30N 35°30' E 139°46'0 0.0
2017-Aug-16 11:00N 35°30' E 139°46'0 0.0
2017-Aug-16 10:30N 35°30' E 139°46'0 0.0
2017-Aug-16 10:00N 35°30' E 139°46'0 0.0
2017-Aug-16 09:30N 35°30' E 139°46'0 0.0
2017-Aug-16 09:00N 35°30' E 139°46'0 0.0
2017-Aug-16 08:30N 35°30' E 139°46'0 0.0
2017-Aug-16 08:00N 35°30' E 139°46'0 0.0
2017-Aug-16 07:30N 35°30' E 139°46'0 0.0
2017-Aug-16 07:00N 35°30' E 139°46'0 0.0
2017-Aug-16 06:30N 35°30' E 139°46'0 0.0
2017-Aug-16 06:00N 35°30' E 139°46'0 0.0
2017-Aug-16 05:30N 35°30' E 139°46'0 0.0
2017-Aug-16 05:00N 35°30' E 139°46'0 0.0
2017-Aug-16 04:30N 35°30' E 139°46'0 0.0
2017-Aug-16 04:00N 35°30' E 139°46'0 0.0
2017-Aug-16 03:30N 35°30' E 139°46'0 0.0
2017-Aug-16 03:00N 35°30' E 139°46'0 0.0
2017-Aug-16 02:30N 35°30' E 139°46'0 0.0
2017-Aug-16 02:00N 35°30' E 139°46'0 0.0
2017-Aug-16 01:30N 35°30' E 139°46'0 0.0
2017-Aug-16 01:00N 35°30' E 139°46'0 0.0
2017-Aug-16 00:30N 35°30' E 139°46'0 0.0
2017-Aug-16 00:00N 35°30' E 139°46'0 0.0
2017-Aug-15 23:30N 35°30' E 139°46'0 0.0
2017-Aug-15 23:00N 35°30' E 139°46'0 0.0
2017-Aug-15 22:30N 35°30' E 139°46'0 0.0
2017-Aug-15 22:00N 35°30' E 139°46'0 0.0
2017-Aug-15 21:30N 35°30' E 139°46'0 0.0
2017-Aug-15 21:00N 35°30' E 139°46'0 0.0
2017-Aug-15 20:30N 35°30' E 139°46'0 0.0
2017-Aug-15 20:00N 35°30' E 139°46'0 0.0
2017-Aug-15 19:30N 35°30' E 139°46'0 0.0
2017-Aug-15 19:00N 35°30' E 139°46'0 0.0
2017-Aug-15 18:30N 35°30' E 139°46'0 0.0
2017-Aug-15 18:00N 35°30' E 139°46'0 0.0
2017-Aug-15 17:30N 35°30' E 139°46'0 0.0
2017-Aug-15 17:00N 35°30' E 139°46'0 0.0
2017-Aug-15 16:30N 35°30' E 139°46'0 0.0
2017-Aug-15 16:00N 35°30' E 139°46'0 0.0
2017-Aug-15 15:30N 35°30' E 139°46'0 0.0
2017-Aug-15 15:00N 35°30' E 139°46'0 0.0
2017-Aug-15 14:30N 35°30' E 139°46'0 0.0
2017-Aug-15 14:00N 35°30' E 139°46'0 0.0
2017-Aug-15 13:30N 35°30' E 139°46'0 0.0
2017-Aug-15 13:00N 35°30' E 139°46'0 0.0
2017-Aug-15 12:30N 35°30' E 139°46'0 0.0
2017-Aug-15 12:00N 35°30' E 139°46'0 0.0
2017-Aug-15 11:30N 35°30' E 139°46'0 0.0
2017-Aug-15 11:00N 35°30' E 139°46'0 0.0
2017-Aug-15 10:30N 35°30' E 139°46'0 0.0
2017-Aug-15 10:00N 35°30' E 139°46'0 0.0
2017-Aug-15 09:30N 35°30' E 139°46'0 0.0
2017-Aug-15 09:00N 35°30' E 139°46'0 0.0
2017-Aug-15 08:30N 35°30' E 139°46'0 0.0
2017-Aug-15 08:00N 35°30' E 139°46'0 0.0
2017-Aug-15 07:30N 35°30' E 139°46'0 0.0
2017-Aug-15 07:00N 35°30' E 139°46'0 0.0
2017-Aug-15 06:30N 35°30' E 139°46'0 0.5
2017-Aug-15 06:00N 35°31' E 139°46'3 6.3
2017-Aug-15 05:30N 35°27' E 139°45'0 0.6
2017-Aug-15 05:00N 35°27' E 139°45'0 0.0
2017-Aug-15 04:30N 35°27' E 139°45'0 0.0
2017-Aug-15 04:00N 35°27' E 139°45'0 0.0
2017-Aug-15 03:30N 35°27' E 139°45'0 0.0
2017-Aug-15 03:00N 35°27' E 139°45'0 0.0
2017-Aug-15 02:30N 35°27' E 139°45'0 0.1
2017-Aug-15 02:00N 35°27' E 139°45'4 7.4
2017-Aug-15 01:30N 35°27' E 139°40'2 3.4
2017-Aug-15 01:00N 35°29' E 139°40'0 0.0
2017-Aug-15 00:30N 35°29' E 139°40'0 0.0
2017-Aug-15 00:00N 35°29' E 139°40'0 0.0
2017-Aug-14 23:30N 35°29' E 139°40'0 0.0
2017-Aug-14 23:00N 35°29' E 139°40'0 0.0
2017-Aug-14 22:30N 35°29' E 139°40'0 0.0
2017-Aug-14 22:00N 35°29' E 139°40'1 1.9
2017-Aug-14 21:30N 35°28' E 139°40'3 5.1
2017-Aug-14 21:00N 35°27' E 139°43'0 0.1
2017-Aug-14 20:30N 35°27' E 139°43'0 0.0
2017-Aug-14 20:00N 35°27' E 139°43'0 0.0
2017-Aug-14 19:30N 35°27' E 139°43'0 0.0
2017-Aug-14 19:00N 35°27' E 139°43'1 2.4
2017-Aug-14 18:30N 35°27' E 139°44'1 1.5
2017-Aug-14 18:00N 35°27' E 139°45'0 0.0
2017-Aug-14 17:30N 35°27' E 139°45'0 0.0
2017-Aug-14 17:00N 35°27' E 139°45'0 0.0
2017-Aug-14 16:30N 35°27' E 139°45'0 0.0
2017-Aug-14 16:00N 35°27' E 139°45'0 0.0
2017-Aug-14 15:30N 35°27' E 139°45'0 0.0
2017-Aug-14 15:00N 35°27' E 139°45'0 0.0
2017-Aug-14 14:30N 35°27' E 139°45'1 2.8
2017-Aug-14 14:00N 35°28' E 139°47'1 2.9
2017-Aug-14 13:30N 35°29' E 139°48'0 0.0
2017-Aug-14 13:00N 35°29' E 139°48'0 0.0
2017-Aug-14 12:30N 35°29' E 139°48'0 0.0
2017-Aug-14 12:00N 35°29' E 139°48'0 0.0
2017-Aug-14 11:30N 35°29' E 139°48'0 0.1
2017-Aug-14 11:00N 35°29' E 139°48'0 0.0
2017-Aug-14 10:30N 35°29' E 139°48'0 0.0
2017-Aug-14 10:00N 35°29' E 139°48'0 0.0
2017-Aug-14 09:30N 35°29' E 139°48'0 0.1
2017-Aug-14 09:00N 35°29' E 139°48'0 0.0
2017-Aug-14 08:30N 35°29' E 139°48'0 0.0
2017-Aug-14 08:00N 35°29' E 139°48'0 0.0
2017-Aug-14 07:30N 35°29' E 139°48'0 0.0
2017-Aug-14 07:00N 35°29' E 139°48'0 0.0
2017-Aug-14 06:30N 35°29' E 139°48'0 0.0
2017-Aug-14 06:00N 35°29' E 139°48'0 0.0
2017-Aug-14 05:30N 35°29' E 139°48'0 0.0
2017-Aug-14 05:00N 35°29' E 139°48'0 0.0
2017-Aug-14 04:30N 35°29' E 139°48'2 3.2
2017-Aug-14 04:00N 35°28' E 139°46'4 8.8
2017-Aug-14 03:30N 35°27' E 139°41'2 4.2
2017-Aug-14 03:00N 35°29' E 139°40'0 0.0
2017-Aug-14 02:30N 35°29' E 139°40'0 0.0
2017-Aug-14 02:00N 35°29' E 139°40'0 0.0
2017-Aug-14 01:30N 35°29' E 139°40'0 0.0
2017-Aug-14 01:00N 35°29' E 139°40'0 0.0
2017-Aug-14 00:30N 35°29' E 139°40'0 0.0
2017-Aug-14 00:00N 35°29' E 139°40'0 0.0
2017-Aug-13 23:30N 35°29' E 139°40'0 0.0
2017-Aug-13 23:00N 35°29' E 139°40'0 0.0
2017-Aug-13 22:30N 35°29' E 139°40'2 3.3
2017-Aug-13 22:00N 35°27' E 139°40'2 3.2
2017-Aug-13 21:30N 35°27' E 139°42'0 0.0
2017-Aug-13 21:00N 35°27' E 139°42'0 0.0
2017-Aug-13 20:30N 35°27' E 139°42'0 0.0
2017-Aug-13 20:00N 35°27' E 139°42'0 0.0
2017-Aug-13 19:30N 35°27' E 139°42'0 0.0
2017-Aug-13 19:00N 35°27' E 139°42'0 0.0
2017-Aug-13 18:30N 35°27' E 139°42'0 0.0
2017-Aug-13 18:00N 35°27' E 139°42'0 0.0
2017-Aug-13 17:30N 35°27' E 139°42'0 0.0
2017-Aug-13 17:00N 35°27' E 139°42'0 0.0
2017-Aug-13 16:30N 35°27' E 139°42'0 0.0
2017-Aug-13 16:00N 35°27' E 139°42'0 0.0
2017-Aug-13 15:30N 35°27' E 139°42'0 0.0
2017-Aug-13 15:00N 35°27' E 139°42'0 0.0
2017-Aug-13 14:30N 35°27' E 139°42'0 0.0
2017-Aug-13 14:00N 35°27' E 139°42'0 0.0
2017-Aug-13 13:30N 35°27' E 139°42'0 0.0
2017-Aug-13 13:00N 35°27' E 139°42'0 0.0
2017-Aug-13 12:30N 35°27' E 139°42'0 0.0
2017-Aug-13 12:00N 35°27' E 139°42'0 0.0
2017-Aug-13 11:30N 35°27' E 139°42'0 0.0
2017-Aug-13 11:00N 35°27' E 139°42'0 0.0
2017-Aug-13 10:30N 35°27' E 139°42'0 0.0
2017-Aug-13 10:00N 35°27' E 139°42'0 0.0
2017-Aug-13 09:30N 35°27' E 139°42'0 0.0
2017-Aug-13 09:00N 35°27' E 139°42'0 0.0
2017-Aug-13 08:30N 35°27' E 139°42'0 0.0
2017-Aug-13 08:00N 35°27' E 139°42'0 0.0
2017-Aug-13 07:30N 35°27' E 139°42'0 0.0
2017-Aug-13 07:00N 35°27' E 139°42'0 0.0
2017-Aug-13 06:30N 35°27' E 139°42'0 0.0
2017-Aug-13 06:00N 35°27' E 139°42'0 0.0
2017-Aug-13 05:30N 35°27' E 139°42'0 0.0
2017-Aug-13 05:00N 35°27' E 139°42'0 0.0
2017-Aug-13 04:30N 35°27' E 139°42'0 0.0
2017-Aug-13 04:00N 35°27' E 139°42'0 0.0
2017-Aug-13 03:30N 35°27' E 139°42'0 0.0
2017-Aug-13 03:00N 35°27' E 139°42'0 0.0
2017-Aug-13 02:30N 35°27' E 139°42'0 0.0
2017-Aug-13 02:00N 35°27' E 139°42'0 0.0
2017-Aug-13 01:30N 35°27' E 139°42'0 0.0
2017-Aug-13 01:00N 35°27' E 139°42'0 0.0
2017-Aug-13 00:30N 35°27' E 139°42'0 0.0
2017-Aug-13 00:00N 35°27' E 139°42'0 0.0
2017-Aug-12 23:30N 35°27' E 139°42'0 0.0
2017-Aug-12 23:00N 35°27' E 139°42'0 0.0
2017-Aug-12 22:30N 35°27' E 139°42'0 0.0
2017-Aug-12 22:00N 35°27' E 139°42'0 0.1
2017-Aug-12 21:30N 35°27' E 139°42'0 0.0
2017-Aug-12 21:00N 35°27' E 139°42'0 0.0
2017-Aug-12 20:30N 35°27' E 139°42'0 0.0
2017-Aug-12 20:00N 35°27' E 139°42'0 0.0
2017-Aug-12 19:30N 35°27' E 139°42'0 0.0
2017-Aug-12 19:00N 35°27' E 139°42'0 0.0
2017-Aug-12 18:30N 35°27' E 139°42'0 0.0
2017-Aug-12 18:00N 35°27' E 139°42'4 7.5
2017-Aug-12 17:30N 35°23' E 139°43'510.6
2017-Aug-12 17:00N 35°18' E 139°44'5 9.7
2017-Aug-12 16:30N 35°14' E 139°47'5 9.7
2017-Aug-12 16:00N 35°09' E 139°46'510.7
2017-Aug-12 15:30N 35°04' E 139°44'610.1
2017-Aug-12 14:54N 34°58' E 139°44'  

Dump ship's entire track history